Time;durP1;ratioP1;P1;durP2;ratioP2;P2;SDS_P1;SDS_P2;PMS_P1;PMS_P2;Temp;Humidity;BMP_temperature;BMP_pressure;BME280_temperature;BME280_humidity;BME280_pressure;Samples;Min_cycle;Max_cycle;Signal;HPM_P1;HPM_P2
2022/12/03 00:01:40;;;;;;;17.20;10.70;;;6.10;99.90;;;;;;5019449;28;20184;-69
2022/12/03 00:04:05;;;;;;;14.90;9.57;;;6.10;99.90;;;;;;5018414;28;20191;-68
2022/12/03 00:06:31;;;;;;;13.33;10.37;;;6.10;99.90;;;;;;5018082;28;20206;-68
2022/12/03 00:08:57;;;;;;;13.93;10.10;;;6.10;99.90;;;;;;5014451;28;21828;-68
2022/12/03 00:11:22;;;;;;;16.27;10.80;;;6.10;99.90;;;;;;5020057;28;20198;-68
2022/12/03 00:13:48;;;;;;;15.67;10.73;;;6.10;99.90;;;;;;5020441;28;20231;-68
2022/12/03 00:16:13;;;;;;;13.90;10.00;;;6.10;99.90;;;;;;5014563;28;20192;-69
2022/12/03 00:18:39;;;;;;;16.30;11.40;;;6.10;99.90;;;;;;5020750;28;20745;-69
2022/12/03 00:21:05;;;;;;;15.70;10.13;;;6.10;99.90;;;;;;5015817;28;20199;-69
2022/12/03 00:23:30;;;;;;;15.53;10.20;;;6.10;99.90;;;;;;4998097;28;20208;-69
2022/12/03 00:25:56;;;;;;;13.63;9.17;;;6.10;99.90;;;;;;5018349;28;20227;-70
2022/12/03 00:28:22;;;;;;;16.90;11.03;;;6.10;99.90;;;;;;5015884;28;20275;-69
2022/12/03 00:30:48;;;;;;;15.43;9.70;;;6.10;99.90;;;;;;5021273;28;20215;-69
2022/12/03 00:33:13;;;;;;;16.73;9.50;;;6.10;99.90;;;;;;5014970;28;20181;-69
2022/12/03 00:35:39;;;;;;;14.93;10.13;;;6.10;99.90;;;;;;5013507;28;20176;-69
2022/12/03 00:38:04;;;;;;;15.30;10.37;;;6.20;99.90;;;;;;5016412;28;20752;-69
2022/12/03 00:40:30;;;;;;;16.33;8.93;;;6.20;99.90;;;;;;5018141;28;20216;-68
2022/12/03 00:42:56;;;;;;;17.00;11.30;;;6.20;99.90;;;;;;5013387;28;20181;-69
2022/12/03 00:45:21;;;;;;;20.57;10.63;;;6.20;99.90;;;;;;5014116;28;20204;-69
2022/12/03 00:47:47;;;;;;;14.77;10.00;;;6.20;99.90;;;;;;4982810;28;20212;-69
2022/12/03 00:50:12;;;;;;;13.83;9.90;;;6.20;99.90;;;;;;5024722;28;20200;-69
2022/12/03 00:52:38;;;;;;;14.40;9.60;;;6.10;99.90;;;;;;5001785;28;20227;-69
2022/12/03 00:55:04;;;;;;;15.07;10.20;;;6.20;99.90;;;;;;5021673;28;20246;-68
2022/12/03 00:57:29;;;;;;;16.00;10.20;;;6.20;99.90;;;;;;5017856;28;20181;-70
2022/12/03 00:59:55;;;;;;;14.07;10.70;;;6.20;99.90;;;;;;5021225;28;20185;-69
2022/12/03 01:02:20;;;;;;;17.20;11.43;;;6.20;99.90;;;;;;5018815;28;20283;-68
2022/12/03 01:04:46;;;;;;;18.60;11.33;;;6.30;99.90;;;;;;5015641;28;20255;-68
2022/12/03 01:07:11;;;;;;;17.53;10.77;;;6.30;99.90;;;;;;5003159;28;20176;-69
2022/12/03 01:09:37;;;;;;;15.77;11.73;;;6.30;99.90;;;;;;5018164;28;20282;-68
2022/12/03 01:12:03;;;;;;;18.17;12.13;;;6.20;99.90;;;;;;5001672;28;20192;-69
2022/12/03 01:14:29;;;;;;;14.80;10.93;;;6.20;99.90;;;;;;5020228;28;20172;-69
2022/12/03 01:16:54;;;;;;;19.17;11.30;;;6.20;99.90;;;;;;5017657;28;20435;-69
2022/12/03 01:19:20;;;;;;;14.23;11.30;;;6.30;99.90;;;;;;5021122;28;20207;-69
2022/12/03 01:21:48;;;;;;;18.80;10.60;;;6.30;99.90;;;;;;5019740;28;20283;-69
2022/12/03 01:24:14;;;;;;;15.90;11.07;;;6.30;99.90;;;;;;5020578;28;20192;-69
2022/12/03 01:26:40;;;;;;;16.97;11.33;;;6.30;99.90;;;;;;5022006;28;20945;-68
2022/12/03 01:29:06;;;;;;;15.83;11.30;;;6.30;99.90;;;;;;5018315;28;20459;-69
2022/12/03 01:34:16;;;;;;;17.20;12.80;;;6.30;99.90;;;;;;5018926;28;20258;-68
2022/12/03 01:36:41;;;;;;;22.63;12.47;;;6.30;99.90;;;;;;5019711;28;20861;-69
2022/12/03 01:39:07;;;;;;;16.20;11.10;;;6.30;99.90;;;;;;5016520;28;20205;-69
2022/12/03 01:41:34;;;;;;;20.07;12.00;;;6.30;99.90;;;;;;5014076;28;20192;-68
2022/12/03 01:44:01;;;;;;;15.93;11.17;;;6.30;99.90;;;;;;5016701;28;20172;-69
2022/12/03 01:46:36;;;;;;;14.13;10.40;;;6.30;99.90;;;;;;5002808;28;20428;-69
2022/12/03 01:49:02;;;;;;;20.40;12.30;;;6.30;99.90;;;;;;5020582;28;20460;-69
2022/12/03 01:51:29;;;;;;;17.53;11.73;;;6.40;99.90;;;;;;5019543;28;20463;-69
2022/12/03 01:53:55;;;;;;;17.30;11.37;;;6.40;99.90;;;;;;5020804;28;20798;-68
2022/12/03 01:56:21;;;;;;;19.40;12.50;;;6.40;99.90;;;;;;5020675;28;20535;-70
2022/12/03 01:58:47;;;;;;;17.00;11.10;;;6.40;99.90;;;;;;5021229;28;20478;-69
2022/12/03 02:01:15;;;;;;;19.33;11.80;;;6.40;99.90;;;;;;5020596;28;20192;-69
2022/12/03 02:03:42;;;;;;;17.27;11.70;;;6.40;99.90;;;;;;5017516;28;20443;-69
2022/12/03 02:06:15;;;;;;;16.83;11.50;;;6.40;99.90;;;;;;5003818;28;20978;-69
2022/12/03 02:08:41;;;;;;;21.20;11.97;;;6.40;99.90;;;;;;5018849;28;20459;-69
2022/12/03 02:11:42;;;;;;;18.83;13.07;;;6.40;99.90;;;;;;5020830;28;20479;-69
2022/12/03 02:14:12;;;;;;;19.40;12.07;;;6.40;99.90;;;;;;5002341;28;20479;-69
2022/12/03 02:16:39;;;;;;;17.50;12.77;;;6.40;99.90;;;;;;5003582;28;20440;-68
2022/12/03 02:19:15;;;;;;;18.40;12.13;;;6.40;99.90;;;;;;5018741;28;20530;-69
2022/12/03 02:22:04;;;;;;;18.37;13.00;;;6.40;99.90;;;;;;5018417;28;20452;-69
2022/12/03 02:24:43;;;;;;;18.07;12.70;;;6.30;99.90;;;;;;5014686;28;20431;-69
2022/12/03 02:27:09;;;;;;;17.40;12.80;;;6.40;99.90;;;;;;5016322;28;20443;-69
2022/12/03 02:29:35;;;;;;;18.80;13.50;;;6.40;99.90;;;;;;5018437;28;20467;-69
2022/12/03 02:32:00;;;;;;;18.67;13.03;;;6.40;99.90;;;;;;5019611;28;20184;-68
2022/12/03 02:34:55;;;;;;;18.40;12.67;;;6.40;99.90;;;;;;5018093;28;20181;-68
2022/12/03 02:37:29;;;;;;;16.83;11.13;;;6.40;99.90;;;;;;5007120;28;20212;-69
2022/12/03 02:39:57;;;;;;;16.63;12.23;;;6.40;99.90;;;;;;5016216;28;20450;-69
2022/12/03 02:42:35;;;;;;;17.20;12.50;;;6.40;99.90;;;;;;5021515;28;20435;-68
2022/12/03 02:45:19;;;;;;;17.97;12.50;;;6.40;99.90;;;;;;5015395;28;20542;-69
2022/12/03 02:47:50;;;;;;;20.30;12.93;;;6.40;99.90;;;;;;5013989;28;20459;-68
2022/12/03 02:50:19;;;;;;;17.17;11.47;;;6.40;99.90;;;;;;5018111;28;20893;-69
2022/12/03 02:52:46;;;;;;;16.93;12.03;;;6.40;99.90;;;;;;5016783;28;20430;-68
2022/12/03 02:55:14;;;;;;;18.20;13.00;;;6.40;99.90;;;;;;5021962;28;20464;-69
2022/12/03 02:57:40;;;;;;;16.90;11.70;;;6.40;99.90;;;;;;5002606;28;20455;-69
2022/12/03 03:00:08;;;;;;;22.47;13.97;;;6.40;99.90;;;;;;5021543;28;20529;-68
2022/12/03 03:02:36;;;;;;;17.27;11.77;;;6.40;99.90;;;;;;5022828;28;20944;-68
2022/12/03 03:05:03;;;;;;;18.60;11.90;;;6.40;99.90;;;;;;5023913;28;20465;-68
2022/12/03 03:07:29;;;;;;;16.30;11.87;;;6.40;99.90;;;;;;5015835;28;21678;-68
2022/12/03 03:09:54;;;;;;;18.87;12.63;;;6.40;99.90;;;;;;5021252;28;20463;-69
2022/12/03 03:12:20;;;;;;;16.93;12.03;;;6.40;99.90;;;;;;5019727;28;20184;-69
2022/12/03 03:14:45;;;;;;;19.20;12.50;;;6.40;99.90;;;;;;5006006;28;20282;-68
2022/12/03 03:17:11;;;;;;;16.13;11.80;;;6.40;99.90;;;;;;5022598;28;20176;-69
2022/12/03 03:19:37;;;;;;;18.03;11.80;;;6.40;99.90;;;;;;5019346;28;20254;-68
2022/12/03 03:22:03;;;;;;;17.53;12.20;;;6.40;99.90;;;;;;5023944;28;20238;-68
2022/12/03 03:24:28;;;;;;;23.00;12.97;;;6.40;99.90;;;;;;5004352;28;20422;-68
2022/12/03 03:26:54;;;;;;;16.63;11.60;;;6.40;99.90;;;;;;5020846;28;20185;-68
2022/12/03 03:29:20;;;;;;;16.73;11.03;;;6.40;99.90;;;;;;5021567;28;20547;-68
2022/12/03 03:31:46;;;;;;;20.47;12.40;;;6.40;99.90;;;;;;5021375;28;20184;-69
2022/12/03 03:34:13;;;;;;;16.00;12.00;;;6.40;99.90;;;;;;5018105;28;20188;-68
2022/12/03 03:36:39;;;;;;;20.33;12.70;;;6.30;99.90;;;;;;5003266;28;20435;-69
2022/12/03 03:39:05;;;;;;;17.37;12.10;;;6.30;99.90;;;;;;5021342;28;20554;-69
2022/12/03 03:41:32;;;;;;;17.87;12.80;;;6.20;99.90;;;;;;5020513;28;20446;-69
2022/12/03 03:43:58;;;;;;;16.77;11.20;;;6.20;99.90;;;;;;5021830;28;20814;-69
2022/12/03 03:46:24;;;;;;;19.23;12.67;;;6.20;99.90;;;;;;5019105;28;20439;-68
2022/12/03 03:48:50;;;;;;;19.57;13.10;;;6.20;99.90;;;;;;5006009;28;20451;-69
2022/12/03 03:51:17;;;;;;;16.77;12.80;;;6.20;99.90;;;;;;5021941;28;20208;-69
2022/12/03 03:53:46;;;;;;;19.67;12.20;;;6.20;99.90;;;;;;5022324;28;20476;-68
2022/12/03 03:56:13;;;;;;;17.70;12.07;;;6.20;99.90;;;;;;5019624;28;20423;-68
2022/12/03 03:58:39;;;;;;;20.73;12.60;;;6.20;99.90;;;;;;5023672;28;20931;-69
2022/12/03 04:01:05;;;;;;;15.10;11.03;;;6.20;99.90;;;;;;5018576;28;20506;-69
2022/12/03 04:03:31;;;;;;;18.33;12.70;;;6.20;99.90;;;;;;5016789;28;20642;-68
2022/12/03 04:05:57;;;;;;;18.57;13.17;;;6.20;99.90;;;;;;5020525;28;20526;-67
2022/12/03 04:08:22;;;;;;;20.53;12.53;;;6.20;99.90;;;;;;5017902;28;21412;-67
2022/12/03 04:13:32;;;;;;;18.83;12.07;;;6.20;99.90;;;;;;5020894;28;20183;-68
2022/12/03 04:15:58;;;;;;;21.43;12.33;;;6.20;99.90;;;;;;5018976;28;20439;-68
2022/12/03 04:18:42;;;;;;;18.00;12.07;;;6.20;99.90;;;;;;5021822;28;20477;-68
2022/12/03 04:24:05;;;;;;;20.63;14.13;;;6.20;99.90;;;;;;5019727;28;20450;-68
2022/12/03 04:29:14;;;;;;;19.63;12.23;;;6.20;99.90;;;;;;5023275;28;21173;-69
2022/12/03 04:37:09;;;;;;;16.90;11.87;;;6.30;99.90;;;;;;5018692;28;21115;-67
2022/12/03 04:39:35;;;;;;;22.47;14.30;;;6.20;99.90;;;;;;5017153;28;20459;-68
2022/12/03 04:42:01;;;;;;;20.90;13.30;;;6.20;99.90;;;;;;5019542;28;20442;-67
2022/12/03 04:44:32;;;;;;;19.73;13.83;;;6.20;99.90;;;;;;5017654;28;20184;-67
2022/12/03 04:46:58;;;;;;;18.90;12.97;;;6.20;99.90;;;;;;5014404;28;20188;-67
2022/12/03 04:49:24;;;;;;;22.77;14.63;;;6.20;99.90;;;;;;5017777;28;20443;-68
2022/12/03 04:51:50;;;;;;;19.50;12.50;;;6.20;99.90;;;;;;5014647;28;20471;-68
2022/12/03 04:54:16;;;;;;;17.63;12.47;;;6.20;99.90;;;;;;5017233;28;20466;-68
2022/12/03 04:56:42;;;;;;;19.20;13.20;;;6.20;99.90;;;;;;5016015;28;20202;-67
2022/12/03 04:59:07;;;;;;;22.27;13.10;;;6.30;99.90;;;;;;5016442;28;20208;-68
2022/12/03 05:01:33;;;;;;;19.83;12.87;;;6.30;99.90;;;;;;5019185;28;20234;-68
2022/12/03 05:03:58;;;;;;;23.20;12.83;;;6.30;99.90;;;;;;5019315;28;20179;-68
2022/12/03 05:06:24;;;;;;;22.93;14.40;;;6.30;99.90;;;;;;5017121;28;20176;-68
2022/12/03 05:08:50;;;;;;;23.70;14.03;;;6.30;99.90;;;;;;5016635;28;20196;-68
2022/12/03 05:11:15;;;;;;;20.60;14.80;;;6.30;99.90;;;;;;5020334;28;20214;-67
2022/12/03 05:13:41;;;;;;;20.40;13.93;;;6.30;99.90;;;;;;5020493;28;20187;-67
2022/12/03 05:16:07;;;;;;;23.30;13.50;;;6.30;99.90;;;;;;5001866;28;20188;-69
2022/12/03 05:18:32;;;;;;;25.37;13.27;;;6.30;99.90;;;;;;5018525;28;20197;-69
2022/12/03 05:20:58;;;;;;;24.83;15.00;;;6.30;99.90;;;;;;5017997;28;20196;-68
2022/12/03 05:23:23;;;;;;;22.90;14.20;;;6.30;99.90;;;;;;5018712;28;20188;-68
2022/12/03 05:25:49;;;;;;;23.90;13.47;;;6.30;99.90;;;;;;5020935;28;20296;-69
2022/12/03 05:28:15;;;;;;;20.73;14.00;;;6.30;99.90;;;;;;5018773;28;20205;-69
2022/12/03 05:30:40;;;;;;;23.97;14.50;;;6.30;99.90;;;;;;5020280;28;20354;-68
2022/12/03 05:33:06;;;;;;;23.97;14.70;;;6.30;99.90;;;;;;5021151;28;20230;-68
2022/12/03 05:35:32;;;;;;;22.27;14.20;;;6.30;99.90;;;;;;5019917;28;20181;-68
2022/12/03 05:37:57;;;;;;;19.60;14.00;;;6.30;99.90;;;;;;5020460;28;20202;-69
2022/12/03 05:40:23;;;;;;;30.23;14.57;;;6.30;99.90;;;;;;5018364;28;20191;-68
2022/12/03 05:42:59;;;;;;;22.43;13.07;;;6.30;99.90;;;;;;5002144;28;20681;-69
2022/12/03 05:45:29;;;;;;;22.13;13.53;;;6.30;99.90;;;;;;5020600;28;20177;-68
2022/12/03 05:47:56;;;;;;;23.43;14.07;;;6.20;99.90;;;;;;5019362;28;20557;-68
2022/12/03 05:50:24;;;;;;;24.37;14.90;;;6.20;99.90;;;;;;5020004;28;20478;-69
2022/12/03 05:52:50;;;;;;;24.70;13.50;;;6.20;99.90;;;;;;5019412;28;20481;-68
2022/12/03 05:55:17;;;;;;;23.77;14.57;;;6.20;99.90;;;;;;5002440;28;20434;-68
2022/12/03 05:57:43;;;;;;;26.20;15.33;;;6.20;99.90;;;;;;5020570;28;20443;-69
2022/12/03 06:00:23;;;;;;;25.30;14.77;;;6.20;99.90;;;;;;5020249;28;20444;-69
2022/12/03 06:02:48;;;;;;;28.70;14.60;;;6.20;99.90;;;;;;5018846;28;20188;-69
2022/12/03 06:05:15;;;;;;;27.83;15.83;;;6.20;99.90;;;;;;5023438;28;20489;-69
2022/12/03 06:07:41;;;;;;;22.03;15.10;;;6.20;99.90;;;;;;5022896;28;20649;-68
2022/12/03 06:10:09;;;;;;;25.20;15.60;;;6.10;99.90;;;;;;5020280;28;20567;-68
2022/12/03 06:12:39;;;;;;;24.27;14.83;;;6.10;99.90;;;;;;4997542;28;20435;-68
2022/12/03 06:15:05;;;;;;;27.43;15.73;;;6.10;99.90;;;;;;5014639;28;20493;-69
2022/12/03 06:17:31;;;;;;;24.90;15.17;;;6.00;99.90;;;;;;5020969;28;21072;-68
2022/12/03 06:19:56;;;;;;;23.03;14.20;;;6.00;99.90;;;;;;5022270;28;20439;-69
2022/12/03 06:22:22;;;;;;;26.67;15.23;;;6.00;99.90;;;;;;5021290;28;20211;-69
2022/12/03 06:24:49;;;;;;;29.13;17.43;;;5.90;99.90;;;;;;5018399;28;20191;-68
2022/12/03 06:27:15;;;;;;;25.80;15.60;;;5.90;99.90;;;;;;5016228;28;20188;-69
2022/12/03 06:29:41;;;;;;;28.20;15.60;;;5.80;99.90;;;;;;5016928;28;20456;-69
2022/12/03 06:32:07;;;;;;;30.07;16.13;;;5.80;99.90;;;;;;5021086;28;20859;-69
2022/12/03 06:34:33;;;;;;;29.93;16.60;;;5.80;99.90;;;;;;5017246;28;20214;-68
2022/12/03 06:36:58;;;;;;;28.63;15.77;;;5.80;99.90;;;;;;5021368;28;20430;-69
2022/12/03 06:39:24;;;;;;;31.60;16.50;;;5.80;99.90;;;;;;5019938;28;20888;-69
2022/12/03 06:41:50;;;;;;;29.57;18.27;;;5.70;99.90;;;;;;5023945;28;20169;-69
2022/12/03 06:44:16;;;;;;;28.53;16.50;;;5.70;99.90;;;;;;5020333;28;20751;-69
2022/12/03 06:46:41;;;;;;;25.77;14.93;;;5.70;99.90;;;;;;5017325;28;20451;-69
2022/12/03 06:49:10;;;;;;;34.27;17.33;;;5.70;99.90;;;;;;5019740;28;20841;-69
2022/12/03 06:51:36;;;;;;;33.43;18.30;;;5.60;99.90;;;;;;5024491;28;20217;-68
2022/12/03 06:54:02;;;;;;;29.00;15.90;;;5.60;99.90;;;;;;5016527;28;20983;-68
2022/12/03 06:56:29;;;;;;;34.57;18.60;;;5.60;99.90;;;;;;5017879;28;20435;-68
2022/12/03 06:58:54;;;;;;;32.37;17.17;;;5.50;99.90;;;;;;5019003;28;20461;-68
2022/12/03 07:01:20;;;;;;;30.63;17.17;;;5.50;99.90;;;;;;5018508;28;20431;-68
2022/12/03 07:03:46;;;;;;;31.73;16.47;;;5.50;99.90;;;;;;5013954;28;20241;-68
2022/12/03 07:06:12;;;;;;;32.90;17.07;;;5.40;99.90;;;;;;5018029;28;20665;-68
2022/12/03 07:08:38;;;;;;;35.10;17.47;;;5.40;99.90;;;;;;5017389;28;20828;-68
2022/12/03 07:11:04;;;;;;;35.10;18.80;;;5.40;99.90;;;;;;5020693;28;20490;-68
2022/12/03 07:13:29;;;;;;;32.73;18.23;;;5.40;99.90;;;;;;5019612;28;20212;-68
2022/12/03 07:15:55;;;;;;;29.57;16.57;;;5.40;99.90;;;;;;5018028;28;20230;-68
2022/12/03 07:18:20;;;;;;;29.70;16.53;;;5.40;99.90;;;;;;5002509;28;20292;-68
2022/12/03 07:20:46;;;;;;;35.60;18.17;;;5.30;99.90;;;;;;5019678;28;20184;-68
2022/12/03 07:23:11;;;;;;;33.83;16.83;;;5.30;99.90;;;;;;5018346;28;20201;-69
2022/12/03 07:25:37;;;;;;;38.90;20.80;;;5.30;99.90;;;;;;5020403;28;20187;-68
2022/12/03 07:28:03;;;;;;;36.90;18.77;;;5.30;99.90;;;;;;5014948;28;20212;-68
2022/12/03 07:30:28;;;;;;;33.30;16.93;;;5.30;99.90;;;;;;4998889;28;20193;-68
2022/12/03 07:32:54;;;;;;;34.93;18.03;;;5.30;99.90;;;;;;5013224;28;20196;-68
2022/12/03 07:35:20;;;;;;;35.20;17.93;;;5.30;99.90;;;;;;5019795;28;20320;-68
2022/12/03 07:37:46;;;;;;;33.17;18.00;;;5.30;99.90;;;;;;5016244;28;20205;-69
2022/12/03 07:40:12;;;;;;;35.40;17.30;;;5.30;99.90;;;;;;5002609;28;20439;-69
2022/12/03 07:42:38;;;;;;;37.70;18.27;;;5.30;99.90;;;;;;5017186;28;20193;-70
2022/12/03 07:45:04;;;;;;;36.93;19.87;;;5.30;99.90;;;;;;5019386;28;20441;-68
2022/12/03 07:47:30;;;;;;;35.60;19.03;;;5.30;99.90;;;;;;5018442;28;20258;-68
2022/12/03 07:49:55;;;;;;;43.87;20.17;;;5.30;99.90;;;;;;5011400;28;20463;-68
2022/12/03 07:52:21;;;;;;;45.20;24.83;;;5.30;99.90;;;;;;5021623;28;20480;-69
2022/12/03 07:54:46;;;;;;;39.77;21.33;;;5.20;99.90;;;;;;5018091;28;20185;-68
2022/12/03 07:57:12;;;;;;;36.37;19.30;;;5.30;99.90;;;;;;5018092;28;20734;-68
2022/12/03 07:59:37;;;;;;;34.37;18.60;;;5.20;99.90;;;;;;5015478;28;20271;-68
2022/12/03 08:02:03;;;;;;;36.53;18.53;;;5.30;99.90;;;;;;5016939;28;20196;-69
2022/12/03 08:04:29;;;;;;;38.10;18.60;;;5.30;99.90;;;;;;5017620;28;20180;-70
2022/12/03 08:06:54;;;;;;;39.73;19.10;;;5.30;99.90;;;;;;5022101;28;20215;-70
2022/12/03 08:09:20;;;;;;;36.77;21.30;;;5.30;99.90;;;;;;5020604;28;20250;-70
2022/12/03 08:11:47;;;;;;;44.97;19.47;;;5.30;99.90;;;;;;5021145;28;21075;-70
2022/12/03 08:14:15;;;;;;;33.37;18.30;;;5.30;99.90;;;;;;5025316;28;20190;-69
2022/12/03 08:16:42;;;;;;;36.67;17.50;;;5.30;99.90;;;;;;5023136;28;20416;-69
2022/12/03 08:19:15;;;;;;;36.50;18.63;;;5.40;99.90;;;;;;5018309;28;20467;-69
2022/12/03 08:21:42;;;;;;;35.63;17.60;;;5.40;99.90;;;;;;5019448;28;20585;-68
2022/12/03 08:24:13;;;;;;;34.60;18.80;;;5.40;99.90;;;;;;5021023;28;20425;-68
2022/12/03 08:26:42;;;;;;;36.93;19.47;;;5.40;99.90;;;;;;5021058;28;20421;-70
2022/12/03 08:29:10;;;;;;;39.60;19.50;;;5.50;99.90;;;;;;5017172;28;20451;-69
2022/12/03 08:31:36;;;;;;;38.50;18.77;;;5.50;99.90;;;;;;5015525;28;20473;-69
2022/12/03 08:34:14;;;;;;;34.40;18.27;;;5.60;99.90;;;;;;4996508;28;20444;-68
2022/12/03 08:36:39;;;;;;;32.37;18.53;;;5.60;99.90;;;;;;5010440;28;20443;-69
2022/12/03 08:39:34;;;;;;;31.10;16.87;;;5.60;99.90;;;;;;5013788;28;20462;-68
2022/12/03 08:45:38;;;;;;;37.30;18.83;;;5.70;99.90;;;;;;5020065;28;20886;-68
2022/12/03 08:48:26;;;;;;;34.93;18.83;;;5.80;99.90;;;;;;5016469;28;20461;-69
2022/12/03 08:50:54;;;;;;;30.67;17.77;;;5.90;99.90;;;;;;5015900;28;21154;-68
2022/12/03 08:53:36;;;;;;;33.63;18.23;;;5.90;99.90;;;;;;5016556;28;20551;-69
2022/12/03 08:56:19;;;;;;;36.57;18.47;;;6.00;99.90;;;;;;5017910;28;20868;-68
2022/12/03 08:58:48;;;;;;;33.97;18.60;;;6.00;99.90;;;;;;5017909;28;20446;-68
2022/12/03 09:01:26;;;;;;;36.47;18.87;;;6.10;99.90;;;;;;5018905;28;20415;-68
2022/12/03 09:04:03;;;;;;;35.70;18.23;;;6.20;99.90;;;;;;4995584;28;21301;-69
2022/12/03 09:06:29;;;;;;;36.43;18.50;;;6.20;99.90;;;;;;5015243;28;20890;-69
2022/12/03 09:08:54;;;;;;;37.77;18.70;;;6.20;99.90;;;;;;5013442;28;20463;-68
2022/12/03 09:11:20;;;;;;;38.63;20.00;;;6.30;99.90;;;;;;5014153;28;20295;-68
2022/12/03 09:13:45;;;;;;;35.83;19.53;;;6.30;99.90;;;;;;5016544;28;20188;-69
2022/12/03 09:16:11;;;;;;;35.70;18.40;;;6.30;99.90;;;;;;4999771;28;20180;-69
2022/12/03 09:18:37;;;;;;;35.13;18.00;;;6.40;99.90;;;;;;5018762;28;20204;-69
2022/12/03 09:21:02;;;;;;;34.07;18.73;;;6.40;99.90;;;;;;5012022;28;20204;-69
2022/12/03 09:23:28;;;;;;;38.20;19.90;;;6.50;99.90;;;;;;5018260;28;20688;-69
2022/12/03 09:25:53;;;;;;;34.67;19.63;;;6.50;99.90;;;;;;5000521;28;20179;-69
2022/12/03 09:28:19;;;;;;;37.93;17.97;;;6.50;99.90;;;;;;5016706;28;20287;-69
2022/12/03 09:30:44;;;;;;;32.43;18.40;;;6.60;99.90;;;;;;4991723;28;20204;-69
2022/12/03 09:33:10;;;;;;;36.10;19.07;;;6.70;99.90;;;;;;5015627;28;20199;-69
2022/12/03 09:35:36;;;;;;;31.40;17.60;;;6.70;99.90;;;;;;5012932;28;20199;-68
2022/12/03 09:38:01;;;;;;;33.43;18.53;;;6.70;99.90;;;;;;5019942;28;20212;-69
2022/12/03 09:40:28;;;;;;;34.70;19.47;;;6.70;99.90;;;;;;5020265;28;20637;-68
2022/12/03 09:42:57;;;;;;;34.13;18.47;;;6.70;99.90;;;;;;5019083;28;20195;-69
2022/12/03 09:45:22;;;;;;;34.67;18.97;;;6.70;99.90;;;;;;5022202;28;20418;-68
2022/12/03 09:47:49;;;;;;;33.80;19.40;;;6.70;99.90;;;;;;5016952;28;21005;-68
2022/12/03 09:50:25;;;;;;;33.93;19.73;;;6.70;99.90;;;;;;5019212;28;20208;-68
2022/12/03 09:52:53;;;;;;;34.07;20.20;;;6.80;99.90;;;;;;5016815;28;20426;-68
2022/12/03 09:55:25;;;;;;;33.60;20.60;;;6.70;99.90;;;;;;5017095;28;20427;-68
2022/12/03 09:57:55;;;;;;;36.40;19.70;;;6.70;99.90;;;;;;5018289;28;20435;-68
2022/12/03 10:00:27;;;;;;;34.80;19.80;;;6.70;99.90;;;;;;5018011;28;20916;-69
2022/12/03 10:02:56;;;;;;;33.47;19.80;;;6.70;99.90;;;;;;5020167;28;20799;-68
2022/12/03 10:05:22;;;;;;;37.07;19.83;;;6.80;99.90;;;;;;5012842;28;20435;-68
2022/12/03 10:07:50;;;;;;;36.40;20.23;;;6.70;99.90;;;;;;5015231;28;20447;-68
2022/12/03 10:10:22;;;;;;;37.70;20.70;;;6.80;99.90;;;;;;5016869;28;20466;-68
2022/12/03 10:12:49;;;;;;;39.50;22.20;;;6.80;99.90;;;;;;5018085;28;20470;-68
2022/12/03 10:15:18;;;;;;;35.00;20.10;;;6.80;99.90;;;;;;5019571;28;20826;-69
2022/12/03 10:17:50;;;;;;;37.07;20.13;;;6.80;99.90;;;;;;5003078;28;21001;-69
2022/12/03 10:20:18;;;;;;;39.33;20.20;;;6.80;99.90;;;;;;5017196;28;20471;-68
2022/12/03 10:22:46;;;;;;;40.43;21.73;;;6.80;99.90;;;;;;5017435;28;20957;-68
2022/12/03 10:25:16;;;;;;;38.33;20.03;;;6.90;99.90;;;;;;5017509;28;20489;-68
2022/12/03 10:27:41;;;;;;;35.53;20.40;;;6.90;99.90;;;;;;5016000;28;20873;-69
2022/12/03 10:30:17;;;;;;;38.10;20.37;;;7.00;99.90;;;;;;5018795;28;20467;-69
2022/12/03 10:32:48;;;;;;;35.10;20.30;;;7.00;99.90;;;;;;5016854;28;20690;-69
2022/12/03 10:35:21;;;;;;;40.27;20.40;;;6.90;99.90;;;;;;4997229;28;20813;-69
2022/12/03 10:37:55;;;;;;;44.67;20.90;;;7.00;99.90;;;;;;5019934;22;20484;-69
2022/12/03 10:40:32;;;;;;;36.73;21.63;;;7.00;99.90;;;;;;5001623;28;20854;-69
2022/12/03 10:43:19;;;;;;;43.50;21.17;;;7.00;99.90;;;;;;4989740;28;20428;-68
2022/12/03 10:45:47;;;;;;;36.17;20.30;;;7.00;99.90;;;;;;5003526;28;20563;-68
2022/12/03 10:48:20;;;;;;;33.07;20.87;;;7.00;99.90;;;;;;4996005;28;20500;-68
2022/12/03 10:50:51;;;;;;;40.80;21.90;;;7.00;99.90;;;;;;4995502;28;20455;-68
2022/12/03 10:53:19;;;;;;;39.63;20.47;;;7.10;99.90;;;;;;4987597;28;20803;-68
2022/12/03 10:55:46;;;;;;;36.37;20.70;;;7.10;99.90;;;;;;5001912;28;20411;-68
2022/12/03 10:58:19;;;;;;;38.03;21.67;;;7.20;99.90;;;;;;4980886;28;21055;-68
2022/12/03 11:00:45;;;;;;;39.23;21.23;;;7.20;99.90;;;;;;5002071;28;20417;-68
2022/12/03 11:03:22;;;;;;;37.73;20.60;;;7.20;99.90;;;;;;4999359;28;20523;-67
2022/12/03 11:05:49;;;;;;;36.93;21.57;;;7.20;99.90;;;;;;4996245;28;20264;-67
2022/12/03 11:08:17;;;;;;;36.57;20.10;;;7.30;99.90;;;;;;4993262;28;20459;-68
2022/12/03 11:10:43;;;;;;;38.70;22.23;;;7.30;99.90;;;;;;5009127;28;20542;-68
2022/12/03 11:13:32;;;;;;;39.50;21.07;;;7.30;99.90;;;;;;5003176;28;20885;-67
2022/12/03 11:15:59;;;;;;;39.47;20.90;;;7.40;99.90;;;;;;5003161;28;20743;-69
2022/12/03 11:18:37;;;;;;;43.93;21.97;;;7.40;99.90;;;;;;5000949;28;20452;-68
2022/12/03 11:21:09;;;;;;;38.00;20.90;;;7.50;99.90;;;;;;5001801;28;20943;-68
2022/12/03 11:23:44;;;;;;;45.50;22.67;;;7.50;99.90;;;;;;5010071;28;20432;-69
2022/12/03 11:26:36;;;;;;;40.30;19.80;;;7.60;99.90;;;;;;4995259;28;20997;-69
2022/12/03 11:29:03;;;;;;;40.90;20.10;;;7.60;99.90;;;;;;4975760;28;20454;-69
2022/12/03 11:31:43;;;;;;;41.07;21.37;;;7.60;99.90;;;;;;5007394;28;20460;-69
2022/12/03 11:34:15;;;;;;;38.53;20.83;;;7.60;99.90;;;;;;4995746;28;20443;-69
2022/12/03 11:37:09;;;;;;;38.60;19.67;;;7.60;99.90;;;;;;5004380;28;20850;-69
2022/12/03 11:39:43;;;;;;;36.03;20.50;;;7.70;99.90;;;;;;5004530;28;20896;-69
2022/12/03 11:42:27;;;;;;;32.70;18.87;;;7.60;99.90;;;;;;5002945;28;20493;-69
2022/12/03 11:45:04;;;;;;;38.03;21.03;;;7.60;99.90;;;;;;5007737;28;20485;-69
2022/12/03 11:47:40;;;;;;;34.57;18.50;;;7.70;99.90;;;;;;4999254;28;20817;-69
2022/12/03 11:50:24;;;;;;;32.93;19.37;;;7.70;99.90;;;;;;5003137;28;20562;-69
2022/12/03 11:52:55;;;;;;;39.13;20.73;;;7.70;99.90;;;;;;5007364;28;20950;-69
2022/12/03 11:55:23;;;;;;;45.27;20.67;;;7.70;99.90;;;;;;5001569;28;20421;-67
2022/12/03 11:58:00;;;;;;;35.80;19.70;;;7.70;99.90;;;;;;5002327;28;20455;-69
2022/12/03 12:00:26;;;;;;;38.60;20.80;;;7.80;99.90;;;;;;5003361;28;20426;-68
2022/12/03 12:02:54;;;;;;;35.83;20.50;;;7.80;99.90;;;;;;5003189;28;20503;-68
2022/12/03 12:05:32;;;;;;;31.93;18.70;;;7.80;99.90;;;;;;4986256;28;20439;-68
2022/12/03 12:08:00;;;;;;;34.20;19.80;;;7.80;99.90;;;;;;5001107;28;20469;-69
2022/12/03 12:10:46;;;;;;;32.67;20.50;;;7.80;99.90;;;;;;5004214;28;21155;-69
2022/12/03 12:13:26;;;;;;;36.57;19.90;;;7.80;99.90;;;;;;5000852;28;20488;-70
2022/12/03 12:15:52;;;;;;;33.70;18.73;;;7.80;99.90;;;;;;5000061;28;20442;-68
2022/12/03 12:18:40;;;;;;;40.37;22.43;;;7.80;99.90;;;;;;5002816;28;20995;-68
2022/12/03 12:21:41;;;;;;;39.50;19.90;;;7.80;99.90;;;;;;4983880;28;20191;-67
2022/12/03 12:24:31;;;;;;;36.77;18.80;;;7.80;99.90;;;;;;5001667;28;20794;-68
2022/12/03 12:27:05;;;;;;;34.30;19.00;;;7.80;99.90;;;;;;4997908;28;20483;-68
2022/12/03 12:29:31;;;;;;;37.80;19.63;;;7.80;99.90;;;;;;5002763;28;21099;-67
2022/12/03 12:32:02;;;;;;;30.07;17.83;;;7.80;99.90;;;;;;4998557;28;20480;-68
2022/12/03 12:34:28;;;;;;;32.10;18.93;;;7.80;99.90;;;;;;5000459;28;20432;-69
2022/12/03 12:36:55;;;;;;;35.80;19.90;;;7.70;99.90;;;;;;4998241;28;20810;-68
2022/12/03 12:39:21;;;;;;;35.20;19.27;;;7.70;99.90;;;;;;4998189;28;20226;-68
2022/12/03 12:41:49;;;;;;;32.10;18.87;;;7.70;99.90;;;;;;4997851;28;20973;-67
2022/12/03 12:44:14;;;;;;;33.90;18.77;;;7.80;99.90;;;;;;5001355;28;20234;-67
2022/12/03 12:46:41;;;;;;;34.77;18.33;;;7.70;99.90;;;;;;4998521;28;20790;-68
2022/12/03 12:49:12;;;;;;;34.53;19.57;;;7.80;99.90;;;;;;4996935;28;20208;-68
2022/12/03 12:51:44;;;;;;;36.33;20.10;;;7.70;99.90;;;;;;4994583;28;20476;-70
2022/12/03 12:54:12;;;;;;;30.37;17.97;;;7.70;99.90;;;;;;4999635;28;21247;-69
2022/12/03 12:56:41;;;;;;;36.00;18.27;;;7.70;99.90;;;;;;5003501;28;20885;-70
2022/12/03 12:59:13;;;;;;;33.50;18.23;;;7.70;99.90;;;;;;4999582;28;20453;-70
2022/12/03 13:01:39;;;;;;;34.43;19.43;;;7.70;99.90;;;;;;4996486;28;21059;-72
2022/12/03 13:04:20;;;;;;;34.90;19.30;;;7.70;99.90;;;;;;5000227;28;20442;-70
2022/12/03 13:06:48;;;;;;;34.87;18.53;;;7.70;99.90;;;;;;5001016;28;20452;-71